Time;durP1;ratioP1;P1;durP2;ratioP2;P2;SDS_P1;SDS_P2;PMS_P1;PMS_P2;Temp;Humidity;BMP_temperature;BMP_pressure;BME280_temperature;BME280_humidity;BME280_pressure;Samples;Min_cycle;Max_cycle;Signal;HPM_P1;HPM_P2
2023/03/03 00:02:13;;;;;;;23.77;19.80;;;8.20;95.30;;;;;;6262251;28;20477;-60
2023/03/03 00:05:18;;;;;;;20.43;16.90;;;8.20;95.70;;;;;;6276810;28;20629;-60
2023/03/03 00:08:22;;;;;;;21.37;17.70;;;8.10;96.00;;;;;;6252376;28;20475;-61
2023/03/03 00:11:26;;;;;;;22.23;16.97;;;8.10;96.30;;;;;;6237237;28;20468;-61
2023/03/03 00:14:31;;;;;;;20.53;18.43;;;8.10;96.40;;;;;;6238531;28;20844;-61
2023/03/03 00:17:34;;;;;;;21.93;18.90;;;8.10;96.70;;;;;;6241586;28;20491;-61
2023/03/03 00:20:39;;;;;;;25.00;20.00;;;8.10;96.90;;;;;;6240072;28;20471;-62
2023/03/03 00:23:43;;;;;;;23.97;18.10;;;8.00;97.00;;;;;;6239164;28;20459;-63
2023/03/03 00:26:48;;;;;;;21.80;19.33;;;8.10;97.30;;;;;;6232709;28;20475;-63
2023/03/03 00:29:55;;;;;;;20.10;18.00;;;8.00;97.50;;;;;;6239461;28;20938;-62
2023/03/03 00:32:58;;;;;;;21.10;17.80;;;7.90;97.90;;;;;;6239484;28;20467;-62
2023/03/03 00:36:30;;;;;;;22.40;18.00;;;7.90;98.20;;;;;;6241473;28;20800;-62
2023/03/03 00:39:36;;;;;;;24.03;19.90;;;7.80;98.40;;;;;;6230942;28;20484;-63
2023/03/03 00:42:39;;;;;;;22.63;17.43;;;7.80;98.70;;;;;;6227875;28;20483;-62
2023/03/03 00:45:45;;;;;;;22.30;16.77;;;7.70;99.10;;;;;;6227932;28;20480;-63
2023/03/03 00:48:51;;;;;;;21.57;18.07;;;7.60;99.50;;;;;;6227424;28;20816;-63
2023/03/03 00:51:56;;;;;;;21.93;18.83;;;7.60;99.80;;;;;;6236029;28;20443;-63
2023/03/03 00:54:59;;;;;;;19.07;17.03;;;7.60;99.90;;;;;;6251015;28;20458;-63
2023/03/03 00:58:03;;;;;;;21.43;18.07;;;7.60;99.90;;;;;;6252091;28;20816;-63
2023/03/03 01:01:06;;;;;;;24.53;18.83;;;7.60;99.90;;;;;;6252188;28;20485;-63
2023/03/03 01:04:09;;;;;;;22.30;19.03;;;7.70;99.90;;;;;;6276378;28;20458;-61
2023/03/03 01:07:14;;;;;;;21.73;17.60;;;7.70;99.90;;;;;;6276061;28;20469;-62
2023/03/03 01:10:18;;;;;;;20.27;18.23;;;7.70;99.90;;;;;;6276917;28;20470;-62
2023/03/03 01:13:26;;;;;;;23.07;18.57;;;7.70;99.90;;;;;;6276681;28;20473;-61
2023/03/03 01:16:29;;;;;;;21.80;18.00;;;7.70;99.90;;;;;;6276564;28;20469;-61
2023/03/03 01:19:32;;;;;;;20.37;18.00;;;7.70;99.90;;;;;;6276768;28;20474;-62
2023/03/03 01:22:37;;;;;;;20.87;18.63;;;7.70;99.90;;;;;;6276648;28;20461;-62
2023/03/03 01:25:40;;;;;;;24.17;20.10;;;7.60;99.90;;;;;;6276321;28;20474;-64
2023/03/03 01:28:43;;;;;;;22.07;19.00;;;7.70;99.90;;;;;;6276200;28;20504;-64
2023/03/03 01:31:46;;;;;;;20.40;16.87;;;7.60;99.90;;;;;;6276214;28;20804;-64
2023/03/03 01:34:49;;;;;;;21.90;19.23;;;7.60;99.90;;;;;;6276300;28;20481;-64
2023/03/03 01:37:54;;;;;;;21.83;19.30;;;7.60;99.90;;;;;;6276360;28;20563;-65
2023/03/03 01:40:59;;;;;;;21.97;19.23;;;7.60;99.90;;;;;;6277972;28;20458;-65
2023/03/03 01:44:02;;;;;;;21.93;19.00;;;7.60;99.90;;;;;;6277393;28;20772;-65
2023/03/03 01:47:09;;;;;;;31.00;21.87;;;7.50;99.90;;;;;;6276348;28;20478;-65
2023/03/03 01:50:17;;;;;;;23.07;20.50;;;7.50;99.90;;;;;;6275971;28;20477;-65
2023/03/03 01:53:28;;;;;;;19.63;17.20;;;7.40;99.90;;;;;;6254153;28;20486;-65
2023/03/03 01:56:31;;;;;;;22.40;19.90;;;7.40;99.90;;;;;;6246438;28;20463;-64
2023/03/03 01:59:37;;;;;;;22.07;18.90;;;7.30;99.90;;;;;;6249578;28;20497;-65
2023/03/03 02:02:42;;;;;;;27.70;20.27;;;7.30;99.90;;;;;;6264955;28;20980;-65
2023/03/03 02:05:45;;;;;;;21.67;19.07;;;7.30;99.90;;;;;;6275386;28;20470;-65
2023/03/03 02:08:54;;;;;;;22.37;20.17;;;7.30;99.90;;;;;;6275209;28;20496;-65
2023/03/03 02:12:01;;;;;;;24.50;21.03;;;7.40;99.90;;;;;;6274685;28;20470;-68
2023/03/03 02:15:17;;;;;;;24.63;18.93;;;7.40;99.90;;;;;;6272241;28;20470;-65
2023/03/03 02:18:20;;;;;;;27.40;21.10;;;7.40;99.90;;;;;;6250203;28;20522;-65
2023/03/03 02:21:26;;;;;;;22.50;18.87;;;7.40;99.90;;;;;;6250440;28;20505;-65
2023/03/03 02:24:38;;;;;;;23.80;21.00;;;7.50;99.90;;;;;;6249988;28;20700;-64
2023/03/03 02:27:43;;;;;;;23.53;21.03;;;7.50;99.90;;;;;;6250286;28;20482;-65
2023/03/03 02:30:47;;;;;;;23.57;18.80;;;7.40;99.90;;;;;;6249874;28;20475;-65
2023/03/03 02:33:51;;;;;;;30.13;19.53;;;7.50;99.90;;;;;;6250186;28;20764;-65
2023/03/03 02:36:54;;;;;;;22.77;19.83;;;7.40;99.90;;;;;;6250004;28;20894;-65
2023/03/03 02:39:58;;;;;;;24.53;21.20;;;7.40;99.90;;;;;;6249549;28;20494;-65
2023/03/03 02:43:05;;;;;;;23.50;21.03;;;7.40;99.90;;;;;;6249974;28;20930;-65
2023/03/03 02:46:08;;;;;;;22.37;20.00;;;7.40;99.90;;;;;;6251557;28;20462;-64
2023/03/03 02:49:14;;;;;;;24.50;21.07;;;7.30;99.90;;;;;;6250190;28;20782;-65
2023/03/03 02:52:17;;;;;;;22.33;19.93;;;7.30;99.90;;;;;;6249604;28;20467;-65
2023/03/03 02:55:21;;;;;;;25.77;23.07;;;7.20;99.90;;;;;;6250126;28;20475;-65
2023/03/03 02:58:25;;;;;;;24.80;20.40;;;7.10;99.90;;;;;;6245477;28;20463;-64
2023/03/03 03:01:30;;;;;;;22.20;19.90;;;7.10;99.90;;;;;;6253747;28;20926;-64
2023/03/03 03:04:34;;;;;;;22.80;19.70;;;7.10;99.90;;;;;;6274094;28;20478;-64
2023/03/03 03:07:37;;;;;;;24.63;20.40;;;7.10;99.90;;;;;;6274290;28;20481;-64
2023/03/03 03:10:40;;;;;;;22.50;20.17;;;7.20;99.90;;;;;;6274241;28;20477;-64
2023/03/03 03:13:45;;;;;;;26.47;21.47;;;7.10;99.90;;;;;;6274405;28;20466;-64
2023/03/03 03:16:48;;;;;;;26.63;20.67;;;7.10;99.90;;;;;;6274001;28;20474;-64
2023/03/03 03:19:51;;;;;;;23.93;21.43;;;7.10;99.90;;;;;;6273375;28;20473;-64
2023/03/03 03:22:54;;;;;;;23.13;20.40;;;7.10;99.90;;;;;;6273806;28;21031;-64
2023/03/03 03:25:58;;;;;;;23.50;20.57;;;7.10;99.90;;;;;;6274736;28;20516;-64
2023/03/03 03:29:02;;;;;;;27.70;21.17;;;7.00;99.90;;;;;;6274946;28;20478;-64
2023/03/03 03:32:06;;;;;;;24.63;20.20;;;7.00;99.90;;;;;;6274533;28;20466;-64
2023/03/03 03:35:10;;;;;;;25.70;21.60;;;7.00;99.90;;;;;;6274102;28;21019;-64
2023/03/03 03:38:14;;;;;;;27.03;22.43;;;7.10;99.90;;;;;;6273491;28;20474;-64
2023/03/03 03:41:17;;;;;;;23.57;20.07;;;7.10;99.90;;;;;;6273835;28;20474;-64
2023/03/03 03:44:22;;;;;;;25.70;20.83;;;7.10;99.90;;;;;;6273674;28;20470;-64
2023/03/03 03:47:26;;;;;;;21.00;18.80;;;7.10;99.90;;;;;;6273449;28;20974;-64
2023/03/03 03:50:29;;;;;;;26.03;20.63;;;7.10;99.90;;;;;;6275423;28;20477;-64
2023/03/03 03:53:32;;;;;;;25.47;19.57;;;7.10;99.90;;;;;;6253374;28;20458;-64
2023/03/03 03:56:36;;;;;;;22.67;20.23;;;7.10;99.90;;;;;;6249289;28;20471;-65
2023/03/03 03:59:40;;;;;;;24.67;21.53;;;7.10;99.90;;;;;;6248667;28;20475;-65
2023/03/03 04:02:43;;;;;;;24.67;21.40;;;7.00;99.90;;;;;;6263877;28;20470;-63
2023/03/03 04:05:47;;;;;;;27.37;19.90;;;7.00;99.90;;;;;;6274421;28;20477;-63
2023/03/03 04:08:50;;;;;;;25.60;21.17;;;7.00;99.90;;;;;;6274077;28;20474;-64
2023/03/03 04:11:53;;;;;;;22.87;20.47;;;7.00;99.90;;;;;;6274001;28;20810;-64
2023/03/03 04:14:57;;;;;;;26.93;21.60;;;7.00;99.90;;;;;;6273444;28;20469;-63
2023/03/03 04:18:01;;;;;;;20.97;18.80;;;7.00;99.90;;;;;;6270020;28;20481;-64
2023/03/03 04:21:04;;;;;;;22.77;20.00;;;7.00;99.90;;;;;;6248298;28;20471;-64
2023/03/03 04:24:08;;;;;;;22.00;19.23;;;7.00;99.90;;;;;;6247845;28;20491;-63
2023/03/03 04:27:12;;;;;;;27.33;22.03;;;7.00;99.90;;;;;;6247973;28;20803;-64
2023/03/03 04:30:17;;;;;;;27.70;21.10;;;6.90;99.90;;;;;;6250613;28;20485;-63
2023/03/03 04:33:20;;;;;;;28.50;21.67;;;6.80;99.90;;;;;;6252611;28;20473;-63
2023/03/03 04:36:23;;;;;;;25.43;22.40;;;6.90;99.90;;;;;;6252760;28;20483;-64
2023/03/03 04:39:27;;;;;;;25.90;20.63;;;6.90;99.90;;;;;;6252400;28;20491;-64
2023/03/03 04:42:31;;;;;;;23.70;19.90;;;6.90;99.90;;;;;;6252597;28;20506;-64
2023/03/03 04:45:35;;;;;;;27.30;20.27;;;6.80;99.90;;;;;;6252236;28;20489;-64
2023/03/03 04:48:38;;;;;;;22.37;19.97;;;6.90;99.90;;;;;;6252331;28;20486;-64
2023/03/03 04:51:42;;;;;;;24.23;20.90;;;6.90;99.90;;;;;;6252660;28;20471;-64
2023/03/03 04:54:45;;;;;;;25.17;19.43;;;6.90;99.90;;;;;;6252963;28;20485;-64
2023/03/03 04:57:48;;;;;;;20.90;18.60;;;6.90;99.90;;;;;;6252173;28;20482;-64
2023/03/03 05:00:56;;;;;;;21.57;19.33;;;6.80;99.90;;;;;;6252569;28;20446;-64
2023/03/03 05:03:59;;;;;;;20.93;18.23;;;6.90;99.90;;;;;;6228012;28;20475;-63
2023/03/03 05:07:03;;;;;;;21.00;18.70;;;6.90;99.90;;;;;;6220357;28;20443;-64
2023/03/03 05:10:07;;;;;;;20.20;18.00;;;6.90;99.90;;;;;;6227907;28;20772;-63
2023/03/03 05:13:14;;;;;;;21.77;17.40;;;7.00;99.90;;;;;;6227902;28;20838;-64
2023/03/03 05:16:18;;;;;;;21.43;17.90;;;7.00;99.90;;;;;;6227607;28;20975;-65
2023/03/03 05:19:22;;;;;;;20.83;18.53;;;7.00;99.90;;;;;;6229385;28;20554;-64
2023/03/03 05:22:25;;;;;;;21.87;19.57;;;7.00;99.90;;;;;;6227431;28;20471;-64
2023/03/03 05:25:28;;;;;;;19.30;17.20;;;7.10;99.90;;;;;;6227762;28;20468;-65
2023/03/03 05:28:32;;;;;;;24.03;17.53;;;7.10;99.90;;;;;;6227336;28;20479;-63
2023/03/03 05:31:37;;;;;;;22.73;19.00;;;7.10;99.90;;;;;;6226976;28;20987;-64
2023/03/03 05:34:40;;;;;;;21.90;18.33;;;7.00;99.90;;;;;;6227045;28;20487;-64
2023/03/03 05:37:46;;;;;;;21.43;19.13;;;7.00;99.90;;;;;;6226867;28;20518;-63
2023/03/03 05:40:49;;;;;;;22.67;19.23;;;6.90;99.90;;;;;;6226117;28;20483;-64
2023/03/03 05:43:52;;;;;;;23.33;19.30;;;6.90;99.90;;;;;;6227047;28;20487;-63
2023/03/03 05:46:57;;;;;;;21.90;18.97;;;7.00;99.90;;;;;;6227008;28;20476;-63
2023/03/03 05:50:01;;;;;;;22.47;20.03;;;7.00;99.90;;;;;;6226735;28;20480;-64
2023/03/03 05:53:04;;;;;;;26.13;20.90;;;7.00;99.90;;;;;;6244897;28;20466;-63
2023/03/03 05:56:08;;;;;;;28.50;21.17;;;7.00;99.90;;;;;;6250804;28;20481;-63
2023/03/03 05:59:11;;;;;;;22.20;19.57;;;7.00;99.90;;;;;;6250904;28;20476;-63
2023/03/03 06:02:15;;;;;;;24.43;21.77;;;7.10;99.90;;;;;;6260563;28;20466;-63
2023/03/03 06:05:19;;;;;;;24.57;20.40;;;7.10;99.90;;;;;;6275170;28;20470;-63
2023/03/03 06:08:22;;;;;;;24.10;20.07;;;7.20;99.90;;;;;;6275189;28;21134;-64
2023/03/03 06:11:25;;;;;;;22.40;20.00;;;7.20;99.90;;;;;;6270997;28;20474;-64
2023/03/03 06:14:28;;;;;;;22.93;20.57;;;7.10;99.90;;;;;;6275185;28;20481;-64
2023/03/03 06:17:33;;;;;;;23.93;19.33;;;7.20;99.90;;;;;;6275330;28;20528;-65
2023/03/03 06:20:37;;;;;;;23.27;19.70;;;7.20;99.90;;;;;;6275229;28;20496;-65
2023/03/03 06:23:41;;;;;;;21.53;19.37;;;7.30;99.90;;;;;;6275123;28;20619;-64
2023/03/03 06:26:44;;;;;;;23.10;20.40;;;7.40;99.90;;;;;;6275110;28;20473;-65
2023/03/03 06:29:47;;;;;;;24.60;21.30;;;7.50;99.90;;;;;;6274759;28;20815;-64
2023/03/03 06:32:52;;;;;;;21.03;18.90;;;7.50;99.90;;;;;;6274692;28;21001;-65
2023/03/03 06:35:55;;;;;;;21.03;18.73;;;7.50;99.90;;;;;;6274991;28;20474;-65
2023/03/03 06:38:59;;;;;;;22.47;18.63;;;7.60;99.90;;;;;;6274415;28;20536;-65
2023/03/03 06:42:03;;;;;;;22.63;19.00;;;7.70;99.90;;;;;;6274480;28;20470;-65
2023/03/03 06:45:06;;;;;;;23.37;19.37;;;7.70;99.90;;;;;;6274707;28;20486;-63
2023/03/03 06:48:11;;;;;;;19.77;17.67;;;7.70;99.90;;;;;;6274628;28;20474;-65
2023/03/03 06:51:25;;;;;;;21.10;19.07;;;7.70;99.90;;;;;;6271454;28;20489;-64
2023/03/03 06:54:29;;;;;;;23.07;19.60;;;7.80;99.90;;;;;;6249843;28;20474;-65
2023/03/03 06:57:34;;;;;;;20.93;18.73;;;8.00;99.90;;;;;;6249373;28;20969;-65
2023/03/03 07:00:37;;;;;;;21.23;19.10;;;8.00;99.90;;;;;;6249163;28;20489;-65
2023/03/03 07:03:42;;;;;;;21.53;17.90;;;8.00;99.90;;;;;;6240552;28;20475;-65
2023/03/03 07:06:45;;;;;;;22.00;19.63;;;8.00;99.90;;;;;;6236782;28;20962;-65
2023/03/03 07:09:51;;;;;;;18.47;16.57;;;8.10;99.90;;;;;;6245541;28;20459;-64
2023/03/03 07:12:58;;;;;;;17.73;15.30;;;8.20;99.90;;;;;;6242079;28;20435;-64
2023/03/03 07:16:09;;;;;;;19.77;17.40;;;8.20;99.90;;;;;;6235933;28;20425;-65
2023/03/03 07:19:20;;;;;;;19.60;16.50;;;8.30;99.90;;;;;;6234007;28;20470;-65
2023/03/03 07:22:27;;;;;;;20.27;18.27;;;8.30;99.90;;;;;;6231011;28;20482;-64
2023/03/03 07:25:34;;;;;;;24.43;19.67;;;8.40;99.90;;;;;;6233925;28;20482;-64
2023/03/03 07:28:42;;;;;;;23.90;19.13;;;8.40;99.90;;;;;;6242058;28;20482;-64
2023/03/03 07:31:47;;;;;;;22.50;18.60;;;8.50;99.90;;;;;;6250382;28;20479;-64
2023/03/03 07:34:53;;;;;;;21.30;19.07;;;8.50;99.90;;;;;;6249456;28;20467;-64
2023/03/03 07:37:57;;;;;;;22.20;19.93;;;8.70;99.90;;;;;;6242301;28;20482;-64
2023/03/03 07:41:02;;;;;;;21.30;19.10;;;8.60;99.90;;;;;;6235534;28;20793;-64
2023/03/03 07:44:12;;;;;;;23.97;18.77;;;8.70;99.90;;;;;;6224850;28;20778;-63
2023/03/03 07:47:20;;;;;;;22.37;19.20;;;8.80;99.90;;;;;;6224816;28;20940;-64
2023/03/03 07:50:25;;;;;;;22.00;19.57;;;9.00;99.90;;;;;;6224746;28;20472;-64
2023/03/03 07:53:33;;;;;;;22.57;19.27;;;9.20;99.90;;;;;;6245577;28;20471;-64
2023/03/03 07:56:37;;;;;;;22.97;20.60;;;9.40;99.90;;;;;;6248818;28;20470;-64
2023/03/03 07:59:46;;;;;;;21.07;18.80;;;9.70;99.90;;;;;;6248778;28;20475;-65
2023/03/03 08:02:55;;;;;;;19.60;17.70;;;10.00;99.90;;;;;;6264080;28;20466;-64
2023/03/03 08:06:08;;;;;;;21.00;18.13;;;10.10;99.90;;;;;;6277616;28;20482;-65
2023/03/03 08:09:36;;;;;;;25.37;18.50;;;10.20;99.90;;;;;;6278250;28;20478;-64
2023/03/03 08:12:41;;;;;;;19.50;16.73;;;10.20;99.90;;;;;;6278404;28;20486;-64
2023/03/03 08:15:46;;;;;;;20.33;16.83;;;10.20;99.90;;;;;;6278053;28;20480;-64
2023/03/03 08:18:52;;;;;;;20.40;17.30;;;10.20;99.90;;;;;;6277996;28;20476;-64
2023/03/03 08:22:01;;;;;;;19.03;16.70;;;10.30;99.90;;;;;;6278009;28;20874;-65
2023/03/03 08:25:04;;;;;;;20.97;18.70;;;10.40;99.90;;;;;;6278181;28;20471;-65
2023/03/03 08:28:08;;;;;;;21.10;18.80;;;10.80;99.90;;;;;;6271845;28;20902;-64
2023/03/03 08:31:11;;;;;;;19.90;17.50;;;11.30;99.40;;;;;;6253502;28;20474;-64
2023/03/03 08:34:27;;;;;;;20.00;17.90;;;11.90;98.50;;;;;;6253092;28;20467;-64
2023/03/03 08:37:31;;;;;;;18.90;17.00;;;12.40;97.70;;;;;;6253054;28;20479;-65
2023/03/03 08:40:35;;;;;;;18.80;15.83;;;13.30;96.80;;;;;;6234695;28;20954;-65
2023/03/03 08:43:39;;;;;;;16.90;15.10;;;14.00;95.10;;;;;;6250599;28;20471;-64
2023/03/03 08:46:43;;;;;;;20.20;18.10;;;14.10;93.60;;;;;;6251675;28;20973;-65
2023/03/03 08:49:46;;;;;;;18.40;16.40;;;13.80;92.70;;;;;;6252550;28;20538;-65
2023/03/03 08:52:51;;;;;;;19.13;17.07;;;13.40;93.20;;;;;;6245193;28;20474;-64
2023/03/03 08:55:54;;;;;;;18.90;16.90;;;13.10;93.70;;;;;;6239536;28;20471;-64
2023/03/03 08:58:57;;;;;;;19.77;17.87;;;12.90;94.30;;;;;;6232662;28;20483;-64
2023/03/03 09:02:05;;;;;;;19.23;17.23;;;13.20;95.00;;;;;;6246443;28;20993;-63
2023/03/03 09:05:09;;;;;;;19.60;17.40;;;15.60;93.90;;;;;;6276965;28;20473;-64
2023/03/03 09:08:14;;;;;;;17.70;15.90;;;17.60;87.80;;;;;;6275586;28;20478;-63
2023/03/03 09:11:24;;;;;;;18.77;16.90;;;17.30;81.00;;;;;;6242078;28;20471;-63
2023/03/03 09:14:29;;;;;;;21.33;17.57;;;18.40;80.40;;;;;;6250753;28;20477;-64
2023/03/03 09:17:35;;;;;;;20.33;18.43;;;22.30;67.20;;;;;;6251124;28;20236;-63
2023/03/03 09:20:39;;;;;;;20.70;18.53;;;25.80;53.80;;;;;;6251802;28;20299;-63
2023/03/03 09:23:52;;;;;;;20.40;18.60;;;28.10;41.80;;;;;;6242548;28;20678;-64
2023/03/03 09:26:58;;;;;;;21.20;19.30;;;29.60;37.00;;;;;;6251637;28;20235;-63
2023/03/03 09:30:02;;;;;;;19.17;17.48;;;31.40;31.80;;;;;;6251432;28;20240;-64
2023/03/03 09:33:29;;;;;;;18.13;16.23;;;33.40;28.10;;;;;;6251476;28;20243;-63
2023/03/03 09:36:37;;;;;;;19.27;17.42;;;34.20;25.50;;;;;;6251181;28;20223;-63
2023/03/03 09:39:42;;;;;;;18.88;17.38;;;35.10;24.70;;;;;;6250857;28;20582;-65
2023/03/03 09:42:59;;;;;;;20.67;18.60;;;35.70;23.40;;;;;;6250941;28;20235;-64
2023/03/03 09:46:09;;;;;;;20.75;18.73;;;36.40;22.70;;;;;;6226489;28;20217;-64
2023/03/03 09:49:24;;;;;;;19.15;17.45;;;37.40;21.50;;;;;;6226919;28;20229;-63
2023/03/03 09:52:39;;;;;;;18.23;16.75;;;38.10;20.40;;;;;;6247413;28;20235;-63
2023/03/03 09:55:54;;;;;;;18.52;16.92;;;38.10;19.70;;;;;;6252027;28;20238;-63
2023/03/03 09:59:14;;;;;;;17.92;16.58;;;38.00;19.30;;;;;;6251210;28;20236;-64
2023/03/03 10:02:34;;;;;;;19.73;18.25;;;38.40;19.30;;;;;;6261050;28;20223;-63
2023/03/03 10:05:45;;;;;;;19.45;17.85;;;39.30;18.60;;;;;;6275586;28;20227;-64
2023/03/03 10:09:08;;;;;;;18.55;16.85;;;39.40;18.20;;;;;;6274996;28;20231;-63
2023/03/03 10:12:21;;;;;;;16.30;15.00;;;39.00;17.60;;;;;;6275040;28;20238;-62
2023/03/03 10:15:36;;;;;;;16.27;14.60;;;36.70;18.80;;;;;;6275395;28;20227;-62
2023/03/03 10:18:48;;;;;;;16.75;15.30;;;36.00;19.40;;;;;;6274966;28;20245;-63
2023/03/03 10:22:01;;;;;;;15.77;14.45;;;36.20;19.10;;;;;;6275093;28;20211;-64
2023/03/03 10:25:19;;;;;;;15.93;14.73;;;37.20;18.90;;;;;;6270550;28;20206;-64
2023/03/03 10:28:46;;;;;;;16.27;14.85;;;37.90;18.20;;;;;;6275095;28;20233;-62
2023/03/03 10:32:02;;;;;;;14.80;13.55;;;38.00;17.90;;;;;;6274527;28;20266;-63
2023/03/03 10:35:24;;;;;;;14.73;13.35;;;38.50;17.50;;;;;;6274741;28;20586;-62
2023/03/03 10:38:55;;;;;;;14.00;12.77;;;38.10;17.00;;;;;;6274937;28;20231;-64
2023/03/03 10:42:19;;;;;;;12.50;11.30;;;37.90;17.40;;;;;;6278998;28;20222;-63
2023/03/03 10:45:39;;;;;;;14.40;13.18;;;38.30;17.00;;;;;;6255470;28;20220;-62
2023/03/03 10:48:54;;;;;;;13.27;12.18;;;36.00;18.20;;;;;;6249746;28;20247;-63
2023/03/03 10:52:19;;;;;;;13.38;12.18;;;36.30;17.90;;;;;;6249581;28;20719;-63
2023/03/03 10:55:35;;;;;;;14.00;12.60;;;37.10;17.90;;;;;;6249513;28;20683;-64
2023/03/03 10:58:50;;;;;;;14.20;12.90;;;37.40;17.30;;;;;;6248870;28;20235;-63
2023/03/03 11:01:58;;;;;;;15.93;14.43;;;36.50;17.80;;;;;;6257179;28;20229;-64
2023/03/03 11:05:25;;;;;;;13.38;12.18;;;35.60;18.60;;;;;;6264655;28;20243;-62
2023/03/03 11:08:36;;;;;;;14.90;13.55;;;34.30;19.10;;;;;;6225425;28;20240;-63
2023/03/03 11:11:48;;;;;;;15.18;13.70;;;32.40;20.80;;;;;;6225638;28;20229;-62
2023/03/03 11:14:58;;;;;;;14.57;13.48;;;31.40;21.10;;;;;;6223843;28;20232;-63
2023/03/03 11:18:18;;;;;;;16.37;14.77;;;29.30;22.80;;;;;;6223589;28;20672;-63
2023/03/03 11:21:33;;;;;;;15.30;13.77;;;28.20;24.80;;;;;;6224351;28;20228;-62
2023/03/03 11:24:55;;;;;;;16.77;13.27;;;31.50;23.40;;;;;;6224379;28;20239;-64
2023/03/03 11:28:24;;;;;;;15.52;14.23;;;35.00;20.40;;;;;;6224341;28;20232;-62
2023/03/03 11:31:35;;;;;;;13.85;12.18;;;36.60;18.50;;;;;;6215962;28;20228;-62
2023/03/03 11:34:56;;;;;;;14.35;12.88;;;37.80;17.80;;;;;;6224341;28;20232;-62
2023/03/03 11:38:19;;;;;;;14.13;12.73;;;35.50;18.40;;;;;;6223874;28;20582;-64
2023/03/03 11:41:34;;;;;;;13.93;12.73;;;34.30;19.20;;;;;;6229159;28;20641;-62
2023/03/03 11:44:41;;;;;;;15.02;13.50;;;34.40;19.60;;;;;;6241558;28;20717;-63
2023/03/03 11:47:58;;;;;;;14.70;13.35;;;32.30;20.30;;;;;;6253439;28;20231;-64
2023/03/03 11:51:06;;;;;;;13.97;12.77;;;30.60;21.60;;;;;;6253784;28;20235;-62
2023/03/03 11:54:17;;;;;;;15.73;14.27;;;28.30;23.50;;;;;;6253862;28;20246;-63
2023/03/03 11:57:28;;;;;;;16.70;14.10;;;25.60;26.00;;;;;;6253384;28;20229;-62
2023/03/03 12:00:41;;;;;;;16.20;14.60;;;22.80;29.00;;;;;;6253452;28;20684;-63
2023/03/03 12:03:49;;;;;;;15.63;13.93;;;21.40;31.20;;;;;;6275725;28;20224;-62
2023/03/03 12:07:09;;;;;;;14.73;13.20;;;19.30;34.80;;;;;;6278251;28;20702;-63
2023/03/03 12:10:28;;;;;;;15.30;13.00;;;18.30;36.70;;;;;;6278949;28;20219;-61
2023/03/03 12:13:44;;;;;;;18.03;12.93;;;17.80;37.90;;;;;;6279753;28;20530;-63
2023/03/03 12:16:55;;;;;;;14.07;12.27;;;17.50;38.80;;;;;;6277905;28;20228;-63
2023/03/03 12:20:05;;;;;;;13.60;11.67;;;19.30;37.60;;;;;;6277531;28;20679;-63
2023/03/03 12:23:26;;;;;;;13.77;11.30;;;21.30;34.00;;;;;;6278279;28;20310;-62
2023/03/03 12:26:39;;;;;;;14.43;12.90;;;21.10;33.40;;;;;;6279769;28;20239;-61
2023/03/03 12:29:50;;;;;;;13.30;11.70;;;20.30;35.00;;;;;;6278498;28;20235;-62
2023/03/03 12:33:13;;;;;;;15.03;11.57;;;19.20;36.80;;;;;;6277386;28;20307;-62
2023/03/03 12:36:30;;;;;;;17.40;12.13;;;18.40;38.50;;;;;;6272951;28;20236;-62
2023/03/03 12:39:45;;;;;;;13.03;11.73;;;18.00;39.20;;;;;;6278560;28;20244;-61
2023/03/03 12:43:10;;;;;;;12.97;11.30;;;17.90;40.10;;;;;;6277984;28;20288;-62
2023/03/03 12:46:21;;;;;;;16.07;11.97;;;17.70;40.50;;;;;;6227875;28;20471;-64
2023/03/03 12:49:43;;;;;;;13.27;11.87;;;18.10;41.20;;;;;;6227765;28;20550;-62
2023/03/03 12:53:04;;;;;;;13.37;11.93;;;22.20;37.60;;;;;;6251456;28;20239;-63
2023/03/03 12:56:18;;;;;;;12.97;11.53;;;26.30;30.30;;;;;;6252370;28;20240;-64
2023/03/03 12:59:31;;;;;;;14.90;13.50;;;29.90;26.50;;;;;;6252219;28;20246;-62
2023/03/03 13:02:43;;;;;;;15.60;14.20;;;29.90;24.60;;;;;;6264768;28;20663;-62
2023/03/03 13:05:56;;;;;;;14.57;13.07;;;26.80;26.70;;;;;;6276870;28;20698;-63
2023/03/03 13:09:19;;;;;;;14.50;13.07;;;24.20;29.10;;;;;;6276197;28;20228;-63
2023/03/03 13:12:36;;;;;;;16.20;13.10;;;22.10;31.60;;;;;;6275160;28;20612;-63
2023/03/03 13:15:45;;;;;;;20.00;12.97;;;20.90;33.50;;;;;;6275527;28;20231;-61
2023/03/03 13:19:00;;;;;;;15.23;13.13;;;19.60;36.10;;;;;;6276399;28;20228;-64
2023/03/03 13:22:11;;;;;;;13.57;12.27;;;18.60;37.40;;;;;;6276734;28;20188;-65
2023/03/03 13:25:30;;;;;;;12.30;11.03;;;18.00;39.40;;;;;;6276708;28;20220;-64
2023/03/03 13:28:41;;;;;;;12.40;11.20;;;17.40;41.00;;;;;;6276233;28;20600;-64
2023/03/03 13:31:48;;;;;;;14.33;12.20;;;16.80;42.30;;;;;;6276204;28;20476;-64
2023/03/03 13:34:59;;;;;;;13.03;11.73;;;16.50;42.90;;;;;;6276707;28;20539;-64
2023/03/03 13:38:04;;;;;;;13.80;11.40;;;16.40;43.90;;;;;;6275767;28;20558;-64
2023/03/03 13:41:15;;;;;;;14.33;12.83;;;17.00;42.20;;;;;;6271281;28;20481;-64
2023/03/03 13:44:25;;;;;;;14.30;11.70;;;17.00;41.90;;;;;;6265349;28;20475;-64
2023/03/03 13:47:34;;;;;;;12.53;10.97;;;16.90;42.40;;;;;;6251041;28;20483;-63
2023/03/03 13:50:44;;;;;;;14.37;11.53;;;17.00;42.40;;;;;;6245684;28;20479;-63
2023/03/03 13:53:56;;;;;;;13.83;11.87;;;17.50;42.50;;;;;;6250864;28;20477;-63
2023/03/03 13:57:20;;;;;;;13.67;12.30;;;18.40;41.40;;;;;;6250806;28;20243;-63
2023/03/03 14:00:34;;;;;;;14.17;11.60;;;18.50;40.60;;;;;;6251317;28;20236;-65
2023/03/03 14:04:05;;;;;;;12.57;11.27;;;18.70;40.20;;;;;;6272679;28;20224;-67
2023/03/03 14:07:15;;;;;;;15.07;11.70;;;18.60;40.60;;;;;;6275473;28;20658;-64
2023/03/03 14:10:24;;;;;;;14.60;13.10;;;18.30;41.00;;;;;;6275754;28;20227;-65
2023/03/03 14:13:33;;;;;;;14.50;12.40;;;17.80;41.60;;;;;;6275962;28;20230;-66
2023/03/03 14:16:47;;;;;;;13.93;11.80;;;17.40;42.30;;;;;;6275492;28;20233;-64
2023/03/03 14:19:59;;;;;;;20.80;12.07;;;17.10;42.70;;;;;;6275435;28;20949;-66
2023/03/03 14:23:12;;;;;;;14.87;12.73;;;17.10;43.60;;;;;;6279563;28;20247;-63
2023/03/03 14:26:16;;;;;;;12.87;11.20;;;17.00;43.30;;;;;;6277898;28;20932;-63
2023/03/03 14:29:31;;;;;;;14.47;12.33;;;16.70;43.10;;;;;;6275668;28;20476;-62
2023/03/03 14:32:36;;;;;;;14.33;12.87;;;16.20;43.70;;;;;;6275774;28;20477;-61
2023/03/03 14:36:01;;;;;;;13.93;11.93;;;15.90;44.20;;;;;;6251001;28;20769;-61
2023/03/03 14:39:30;;;;;;;17.23;12.70;;;15.70;44.90;;;;;;6239753;28;20547;-61
2023/03/03 14:42:36;;;;;;;19.27;14.77;;;15.60;45.10;;;;;;6236890;28;20482;-61
2023/03/03 14:45:41;;;;;;;14.90;12.93;;;15.50;45.30;;;;;;6228515;28;20471;-61
2023/03/03 14:48:52;;;;;;;13.43;11.70;;;15.40;45.50;;;;;;6233645;28;20494;-62
2023/03/03 14:52:02;;;;;;;14.33;12.73;;;15.30;45.60;;;;;;6242624;28;20470;-63
2023/03/03 14:55:32;;;;;;;15.13;12.40;;;15.20;45.60;;;;;;6251843;28;20716;-62
2023/03/03 14:58:40;;;;;;;14.10;11.90;;;15.20;45.90;;;;;;6250326;28;20474;-62
2023/03/03 15:01:44;;;;;;;15.43;11.97;;;15.30;47.00;;;;;;6255564;28;20492;-61
2023/03/03 15:04:49;;;;;;;15.70;12.80;;;15.10;48.20;;;;;;6274407;28;20492;-61
2023/03/03 15:07:55;;;;;;;15.80;12.83;;;15.10;48.40;;;;;;6274449;28;20482;-61
2023/03/03 15:11:13;;;;;;;15.23;12.57;;;14.90;48.20;;;;;;6274469;28;20470;-61
2023/03/03 15:14:20;;;;;;;14.53;11.70;;;14.40;49.40;;;;;;6266686;28;20471;-61
2023/03/03 15:17:33;;;;;;;17.27;11.57;;;14.40;49.80;;;;;;6232402;28;20476;-61
2023/03/03 15:20:42;;;;;;;14.60;13.10;;;14.20;50.20;;;;;;6231590;28;20474;-63
2023/03/03 15:23:56;;;;;;;15.43;11.50;;;14.20;50.20;;;;;;6235834;28;20479;-63
2023/03/03 15:27:02;;;;;;;12.80;11.50;;;14.10;50.70;;;;;;6234546;28;20471;-61
2023/03/03 15:30:15;;;;;;;13.40;12.00;;;14.00;51.50;;;;;;6249200;28;20475;-62
2023/03/03 15:33:28;;;;;;;19.40;17.43;;;13.80;51.80;;;;;;6249343;28;20822;-62
2023/03/03 15:36:40;;;;;;;14.80;11.03;;;13.70;52.50;;;;;;6249149;28;20494;-62
2023/03/03 15:39:49;;;;;;;18.03;12.40;;;13.60;53.00;;;;;;6248950;28;20471;-62
2023/03/03 15:43:02;;;;;;;13.30;11.90;;;13.50;53.90;;;;;;6248069;28;20481;-63
2023/03/03 15:46:15;;;;;;;17.73;12.80;;;13.30;55.10;;;;;;6260140;28;20525;-63
2023/03/03 15:49:48;;;;;;;15.20;11.53;;;13.20;55.80;;;;;;6273814;28;20516;-62
2023/03/03 15:53:03;;;;;;;14.07;11.10;;;12.90;56.90;;;;;;6273277;28;20477;-62
2023/03/03 15:56:21;;;;;;;16.13;12.40;;;12.50;58.90;;;;;;6273858;28;20544;-62
2023/03/03 15:59:41;;;;;;;15.17;12.60;;;12.40;59.20;;;;;;6274029;28;20475;-62
2023/03/03 16:02:51;;;;;;;14.13;12.00;;;12.40;59.90;;;;;;6258882;28;20797;-62
2023/03/03 16:05:58;;;;;;;13.30;11.87;;;12.40;60.80;;;;;;6248726;28;20556;-63